createdAt,value
2023-05-14T00:01:08.120Z,79.46
2023-05-14T00:03:34.646Z,79.56
2023-05-14T00:06:01.223Z,79.23
2023-05-14T00:08:27.740Z,79.09
2023-05-14T00:10:54.128Z,79.29
2023-05-14T00:13:20.573Z,79.35
2023-05-14T00:15:46.957Z,79.46
2023-05-14T00:18:13.438Z,80.03
2023-05-14T00:20:40.907Z,79.68
2023-05-14T00:23:07.309Z,79.86
2023-05-14T00:25:33.683Z,79.94
2023-05-14T00:28:00.036Z,79.88
2023-05-14T00:30:26.426Z,80.04
2023-05-14T00:32:52.850Z,80.40
2023-05-14T00:35:20.443Z,80.47
2023-05-14T00:37:47.341Z,79.78
2023-05-14T00:40:14.124Z,80.83
2023-05-14T00:42:40.947Z,81.06
2023-05-14T00:45:07.901Z,81.06
2023-05-14T00:47:38.857Z,80.94
2023-05-14T00:50:06.393Z,80.89
2023-05-14T00:52:33.062Z,81.36
2023-05-14T00:55:00.696Z,81.43
2023-05-14T00:57:27.147Z,80.72
2023-05-14T00:59:53.909Z,81.15
2023-05-14T01:02:20.486Z,81.66
2023-05-14T01:04:46.961Z,81.65
2023-05-14T01:07:46.630Z,81.29
2023-05-14T01:10:45.679Z,81.69
2023-05-14T01:13:44.061Z,81.70
2023-05-14T01:16:14.327Z,82.27
2023-05-14T01:18:43.967Z,82.25
2023-05-14T01:21:35.461Z,82.18
2023-05-14T01:24:02.120Z,82.24
2023-05-14T01:26:30.441Z,82.84
2023-05-14T01:29:03.939Z,82.52
2023-05-14T01:31:32.270Z,82.31
2023-05-14T01:34:00.617Z,82.86
2023-05-14T01:36:29.281Z,83.02
2023-05-14T01:38:57.628Z,82.99
2023-05-14T01:41:25.906Z,82.99
2023-05-14T01:43:52.457Z,83.21
2023-05-14T01:46:19.689Z,83.51
2023-05-14T01:48:46.276Z,83.23
2023-05-14T01:51:14.635Z,83.44
2023-05-14T01:53:41.075Z,83.33
2023-05-14T01:56:07.506Z,83.31
2023-05-14T01:58:33.891Z,84.01
2023-05-14T02:01:00.336Z,83.65
2023-05-14T02:03:26.776Z,83.72
2023-05-14T02:05:53.140Z,83.70
2023-05-14T02:08:19.502Z,83.41
2023-05-14T02:10:45.901Z,83.59
2023-05-14T02:13:12.253Z,83.62
2023-05-14T02:15:38.690Z,83.79
2023-05-14T02:18:05.450Z,83.92
2023-05-14T02:20:31.808Z,84.34
2023-05-14T02:22:58.211Z,84.14
2023-05-14T02:25:24.692Z,84.66
2023-05-14T02:27:51.081Z,84.26
2023-05-14T02:30:17.536Z,84.26
2023-05-14T02:32:44.029Z,84.50
2023-05-14T02:35:10.649Z,84.65
2023-05-14T02:37:37.092Z,84.61
2023-05-14T02:40:04.542Z,84.51
2023-05-14T02:42:31.784Z,85.03
2023-05-14T02:44:58.189Z,84.63
2023-05-14T02:47:24.568Z,84.72
2023-05-14T02:49:51.153Z,84.88
2023-05-14T02:52:17.517Z,84.88
2023-05-14T02:54:43.861Z,85.44
2023-05-14T02:57:10.348Z,85.07
2023-05-14T02:59:36.737Z,85.58
2023-05-14T03:02:03.793Z,85.23
2023-05-14T03:04:30.781Z,85.24
2023-05-14T03:06:57.186Z,84.99
2023-05-14T03:09:23.605Z,85.22
2023-05-14T03:11:50.769Z,86.19
2023-05-14T03:14:17.256Z,85.64
2023-05-14T03:16:43.628Z,85.96
2023-05-14T03:19:10.292Z,85.59
2023-05-14T03:21:36.949Z,86.22
2023-05-14T03:24:03.740Z,86.11
2023-05-14T03:26:30.087Z,86.52
2023-05-14T03:28:56.963Z,85.94
2023-05-14T03:31:23.675Z,86.36
2023-05-14T03:33:50.389Z,86.55
2023-05-14T03:36:16.837Z,86.78
2023-05-14T03:38:43.219Z,86.92
2023-05-14T03:41:09.585Z,86.70
2023-05-14T03:43:36.076Z,87.59
2023-05-14T03:46:02.396Z,87.07
2023-05-14T03:48:28.856Z,86.88
2023-05-14T03:50:55.442Z,87.32
2023-05-14T03:53:21.819Z,87.16
2023-05-14T03:55:48.314Z,86.97
2023-05-14T03:58:14.975Z,87.33
2023-05-14T04:00:42.556Z,87.56
2023-05-14T04:03:09.168Z,87.33
2023-05-14T04:05:35.898Z,86.85
2023-05-14T04:08:02.347Z,87.40
2023-05-14T04:10:28.864Z,87.29
2023-05-14T04:12:55.639Z,87.31
2023-05-14T04:15:22.188Z,86.95
2023-05-14T04:17:48.518Z,87.14
2023-05-14T04:20:14.860Z,87.21
2023-05-14T04:22:41.373Z,87.15
2023-05-14T04:25:08.132Z,87.46
2023-05-14T04:27:34.525Z,87.30
2023-05-14T04:30:01.407Z,87.36
2023-05-14T04:32:27.799Z,87.73
2023-05-14T04:34:54.136Z,87.45
2023-05-14T04:37:20.508Z,87.48
2023-05-14T04:39:46.872Z,86.86
2023-05-14T04:42:13.464Z,87.43
2023-05-14T04:44:40.165Z,87.67
2023-05-14T04:47:07.000Z,87.01
2023-05-14T04:49:33.622Z,87.34
2023-05-14T04:52:01.516Z,86.82
2023-05-14T04:54:27.966Z,86.66
2023-05-14T04:56:56.013Z,86.96
2023-05-14T04:59:22.636Z,86.40
2023-05-14T05:01:49.162Z,86.40
2023-05-14T05:04:15.876Z,86.22
2023-05-14T05:06:42.526Z,86.48
2023-05-14T05:09:09.863Z,86.31
2023-05-14T05:11:36.309Z,86.08
2023-05-14T05:14:02.657Z,85.70
2023-05-14T05:16:29.064Z,85.50
2023-05-14T05:18:55.573Z,85.90
2023-05-14T05:21:22.114Z,85.65
2023-05-14T05:23:48.695Z,85.58
2023-05-14T05:26:15.050Z,85.72
2023-05-14T05:28:41.380Z,85.23
2023-05-14T05:31:08.113Z,85.13
2023-05-14T05:33:35.691Z,84.88
2023-05-14T05:36:02.068Z,84.87
2023-05-14T05:38:28.447Z,85.18
2023-05-14T05:40:55.108Z,85.27
2023-05-14T05:43:21.514Z,85.94
2023-05-14T05:45:47.981Z,85.60
2023-05-14T05:48:14.501Z,85.73
2023-05-14T05:50:41.003Z,85.64
2023-05-14T05:53:07.360Z,85.88
2023-05-14T05:55:33.678Z,85.83
2023-05-14T05:57:59.999Z,86.00
2023-05-14T06:00:26.770Z,85.93
2023-05-14T06:02:53.489Z,85.76
2023-05-14T06:05:20.061Z,85.55
2023-05-14T06:07:46.508Z,85.42
2023-05-14T06:10:12.961Z,85.50
2023-05-14T06:12:39.489Z,85.59
2023-05-14T06:15:06.582Z,84.74
2023-05-14T06:17:33.008Z,84.56
2023-05-14T06:19:59.486Z,85.28
2023-05-14T06:22:25.970Z,83.57
2023-05-14T06:24:52.455Z,82.71
2023-05-14T06:27:18.871Z,82.90
2023-05-14T06:29:45.268Z,82.96
2023-05-14T06:32:15.395Z,82.92
2023-05-14T06:34:42.730Z,82.67
2023-05-14T06:37:10.190Z,80.69
2023-05-14T06:39:37.616Z,80.59
2023-05-14T06:42:04.097Z,80.26
2023-05-14T06:44:33.691Z,80.31
2023-05-14T06:47:00.152Z,79.04
2023-05-14T06:49:26.608Z,78.31
2023-05-14T06:51:54.137Z,78.12
2023-05-14T06:54:20.638Z,78.04
2023-05-14T06:56:47.088Z,78.01
2023-05-14T06:59:13.526Z,76.63
2023-05-14T07:01:40.889Z,76.61
2023-05-14T07:04:07.508Z,77.01
2023-05-14T07:06:33.970Z,76.46
2023-05-14T07:09:01.544Z,77.42
2023-05-14T07:11:28.083Z,76.81
2023-05-14T07:13:54.473Z,76.48
2023-05-14T07:16:21.067Z,75.21
2023-05-14T07:18:47.584Z,75.08
2023-05-14T07:21:13.927Z,74.32
2023-05-14T07:23:40.305Z,74.76
2023-05-14T07:26:07.697Z,74.96
2023-05-14T07:28:34.757Z,75.91
2023-05-14T07:31:01.217Z,75.91
2023-05-14T07:33:27.636Z,75.13
2023-05-14T07:35:54.233Z,75.60
2023-05-14T07:38:21.101Z,74.29
2023-05-14T07:40:47.459Z,73.51
2023-05-14T07:43:14.251Z,73.49
2023-05-14T07:45:41.084Z,71.69
2023-05-14T07:48:07.658Z,71.46
2023-05-14T07:50:34.249Z,72.03
2023-05-14T07:53:00.619Z,71.79
2023-05-14T07:55:28.796Z,72.30
2023-05-14T07:57:55.481Z,71.67
2023-05-14T08:00:22.051Z,71.42
2023-05-14T08:02:49.247Z,71.89
2023-05-14T08:05:15.946Z,71.34
2023-05-14T08:07:42.323Z,70.48
2023-05-14T08:10:09.404Z,72.34
2023-05-14T08:12:35.758Z,72.08
2023-05-14T08:15:02.644Z,71.25
2023-05-14T08:17:29.052Z,72.52
2023-05-14T08:19:55.403Z,70.72
2023-05-14T08:22:21.811Z,70.82
2023-05-14T08:24:48.867Z,68.69
2023-05-14T08:27:16.485Z,69.59
2023-05-14T08:29:42.803Z,68.75
2023-05-14T08:32:21.987Z,66.34
2023-05-14T08:34:49.455Z,68.73
2023-05-14T08:37:15.977Z,66.10
2023-05-14T08:39:42.292Z,67.02
2023-05-14T08:42:12.013Z,63.68
2023-05-14T08:44:49.397Z,62.60
2023-05-14T08:47:18.500Z,61.08
2023-05-14T08:49:47.253Z,60.85
2023-05-14T08:52:16.007Z,61.12
2023-05-14T08:54:42.778Z,64.07
2023-05-14T08:57:09.744Z,63.88
2023-05-14T08:59:36.293Z,62.95
2023-05-14T09:02:05.160Z,60.59
2023-05-14T09:04:32.353Z,61.96
2023-05-14T09:07:01.189Z,63.45
2023-05-14T09:09:27.945Z,62.09
2023-05-14T09:11:54.413Z,61.83
2023-05-14T09:14:22.097Z,62.49
2023-05-14T09:16:50.463Z,60.26
2023-05-14T09:19:19.405Z,62.54
2023-05-14T09:21:49.926Z,61.10
2023-05-14T09:24:21.365Z,62.95
2023-05-14T09:26:51.698Z,61.16
2023-05-14T09:29:18.553Z,61.58
2023-05-14T09:31:45.360Z,60.13
2023-05-14T09:34:11.811Z,61.74
2023-05-14T09:36:38.297Z,60.10
2023-05-14T09:39:04.782Z,59.55
2023-05-14T09:41:31.156Z,62.16
2023-05-14T09:43:57.869Z,58.78
2023-05-14T09:46:24.103Z,60.70
2023-05-14T09:48:50.556Z,58.80
2023-05-14T09:51:20.978Z,56.71
2023-05-14T09:53:47.406Z,56.80
2023-05-14T09:56:14.725Z,53.61
2023-05-14T09:58:41.169Z,55.54
2023-05-14T10:01:07.967Z,55.92
2023-05-14T10:03:34.342Z,55.79
2023-05-14T10:06:06.542Z,56.29
2023-05-14T10:08:41.117Z,57.77
2023-05-14T10:11:13.820Z,56.04
2023-05-14T10:13:43.608Z,55.19
2023-05-14T10:16:21.891Z,55.10
2023-05-14T10:18:53.240Z,53.65
2023-05-14T10:21:22.505Z,56.13
2023-05-14T10:23:50.410Z,56.72
2023-05-14T10:26:17.037Z,54.95
2023-05-14T10:28:44.140Z,53.40
2023-05-14T10:31:10.689Z,53.24
2023-05-14T10:33:50.846Z,52.24
2023-05-14T10:36:17.689Z,53.45
2023-05-14T10:38:44.128Z,53.98
2023-05-14T10:41:12.840Z,56.51
2023-05-14T10:43:43.335Z,52.19
2023-05-14T10:46:12.722Z,49.83
2023-05-14T10:48:42.285Z,51.60
2023-05-14T10:51:11.013Z,51.35
2023-05-14T10:53:39.822Z,51.82
2023-05-14T10:56:12.810Z,53.00
2023-05-14T10:58:42.100Z,49.89
2023-05-14T11:01:10.382Z,50.54
2023-05-14T11:03:46.775Z,51.17
2023-05-14T11:06:15.194Z,49.99
2023-05-14T11:08:41.877Z,50.40
2023-05-14T11:11:09.031Z,50.68
2023-05-14T11:13:35.883Z,49.78
2023-05-14T11:16:15.050Z,48.87
2023-05-14T11:18:47.916Z,47.39
2023-05-14T11:21:14.302Z,50.59
2023-05-14T11:23:40.833Z,46.95
2023-05-14T11:26:07.339Z,47.03
2023-05-14T11:28:34.259Z,47.69
2023-05-14T11:31:00.728Z,45.53
2023-05-14T11:33:27.762Z,46.79
2023-05-14T11:35:54.246Z,46.72
2023-05-14T11:38:21.247Z,47.02
2023-05-14T11:40:58.747Z,49.70
2023-05-14T11:43:29.013Z,47.36
2023-05-14T11:45:56.077Z,47.95
2023-05-14T11:48:24.024Z,48.25
2023-05-14T11:50:53.868Z,49.00
2023-05-14T11:53:25.885Z,49.55
2023-05-14T11:55:54.503Z,50.69
2023-05-14T11:58:21.994Z,48.39
2023-05-14T12:00:52.363Z,48.81
2023-05-14T12:03:26.627Z,47.04
2023-05-14T12:06:01.295Z,44.72
2023-05-14T12:08:29.081Z,44.97
2023-05-14T12:10:56.216Z,44.63
2023-05-14T12:13:27.185Z,44.56
2023-05-14T12:15:55.356Z,47.44
2023-05-14T12:18:24.927Z,47.51
2023-05-14T12:20:52.155Z,44.12
2023-05-14T12:23:31.962Z,46.21
2023-05-14T12:26:06.689Z,46.84
2023-05-14T12:28:34.908Z,45.41
2023-05-14T12:31:03.720Z,44.95
2023-05-14T12:33:30.349Z,47.10
2023-05-14T12:36:17.595Z,46.17
2023-05-14T12:38:47.691Z,45.23
2023-05-14T12:41:13.928Z,46.19
2023-05-14T12:43:43.237Z,45.69
2023-05-14T12:46:10.672Z,45.55
2023-05-14T12:48:37.061Z,43.64
2023-05-14T12:51:03.815Z,44.67
2023-05-14T12:53:30.289Z,46.57
2023-05-14T12:55:56.712Z,45.37
2023-05-14T12:58:23.059Z,43.84
2023-05-14T13:00:49.414Z,44.85
2023-05-14T13:03:15.935Z,44.97
2023-05-14T13:05:42.222Z,45.06
2023-05-14T13:08:09.661Z,45.33
2023-05-14T13:10:36.062Z,43.38
2023-05-14T13:13:02.501Z,43.28
2023-05-14T13:15:29.022Z,43.85
2023-05-14T13:17:55.425Z,45.05
2023-05-14T13:20:23.520Z,43.96
2023-05-14T13:22:49.842Z,42.79
2023-05-14T13:25:16.385Z,43.94
2023-05-14T13:27:42.625Z,45.68
2023-05-14T13:30:09.303Z,43.76
2023-05-14T13:32:35.744Z,45.00
2023-05-14T13:35:02.203Z,43.68
2023-05-14T13:37:28.607Z,43.82
2023-05-14T13:39:55.227Z,44.91
2023-05-14T13:42:21.659Z,46.07
2023-05-14T13:44:48.135Z,45.58
2023-05-14T13:47:14.497Z,46.26
2023-05-14T13:49:40.850Z,45.01
2023-05-14T13:52:07.182Z,45.82
2023-05-14T13:54:33.531Z,45.06
2023-05-14T13:56:59.894Z,45.85
2023-05-14T13:59:26.311Z,47.65
2023-05-14T14:01:52.801Z,49.10
2023-05-14T14:04:19.922Z,47.40
2023-05-14T14:06:46.288Z,48.68
2023-05-14T14:09:13.680Z,47.70
2023-05-14T14:11:40.984Z,47.56
2023-05-14T14:14:07.382Z,47.88
2023-05-14T14:16:33.794Z,46.28
2023-05-14T14:19:00.254Z,46.87
2023-05-14T14:21:26.628Z,48.14
2023-05-14T14:23:53.604Z,47.74
2023-05-14T14:26:20.128Z,48.29
2023-05-14T14:28:46.597Z,47.44
2023-05-14T14:31:13.212Z,48.07
2023-05-14T14:33:39.729Z,48.68
2023-05-14T14:36:06.770Z,47.56
2023-05-14T14:38:33.168Z,48.50
2023-05-14T14:40:59.922Z,46.87
2023-05-14T14:43:26.304Z,46.94
2023-05-14T14:45:52.703Z,46.30
2023-05-14T14:48:23.281Z,44.90
2023-05-14T14:50:49.950Z,43.59
2023-05-14T14:53:16.187Z,45.05
2023-05-14T14:55:42.588Z,44.48
2023-05-14T14:58:09.123Z,44.74
2023-05-14T15:00:35.438Z,45.22
2023-05-14T15:03:01.890Z,44.63
2023-05-14T15:05:28.244Z,45.92
2023-05-14T15:07:54.569Z,44.92
2023-05-14T15:10:20.956Z,46.11
2023-05-14T15:12:47.441Z,46.02
2023-05-14T15:15:13.885Z,46.67
2023-05-14T15:17:40.838Z,48.25
2023-05-14T15:20:08.828Z,48.06
2023-05-14T15:22:35.208Z,49.17
2023-05-14T15:25:01.578Z,49.28
2023-05-14T15:27:27.942Z,47.82
2023-05-14T15:29:54.350Z,46.85
2023-05-14T15:32:20.828Z,45.55
2023-05-14T15:34:47.190Z,45.89
2023-05-14T15:37:13.502Z,48.31
2023-05-14T15:39:39.867Z,47.52
2023-05-14T15:42:06.698Z,48.79
2023-05-14T15:44:33.081Z,48.34
2023-05-14T15:46:59.385Z,48.18
2023-05-14T15:49:25.777Z,49.07
2023-05-14T15:51:52.161Z,49.05
2023-05-14T15:54:18.579Z,52.17
2023-05-14T15:56:45.165Z,50.30
2023-05-14T15:59:11.594Z,50.81
2023-05-14T16:01:37.931Z,51.18
2023-05-14T16:04:04.404Z,52.95
2023-05-14T16:06:31.071Z,51.75
2023-05-14T16:08:57.506Z,52.19
2023-05-14T16:11:23.931Z,52.37
2023-05-14T16:13:50.245Z,53.42
2023-05-14T16:16:16.803Z,53.38
2023-05-14T16:18:43.780Z,52.90
2023-05-14T16:21:10.205Z,52.29
2023-05-14T16:23:36.744Z,54.79
2023-05-14T16:26:03.130Z,54.02
2023-05-14T16:28:29.527Z,55.20
2023-05-14T16:30:56.057Z,55.94
2023-05-14T16:33:22.392Z,54.48
2023-05-14T16:35:49.807Z,55.23
2023-05-14T16:38:16.173Z,55.26
2023-05-14T16:40:42.790Z,54.53
2023-05-14T16:43:09.234Z,53.70
2023-05-14T16:45:37.216Z,54.58
2023-05-14T16:48:04.993Z,54.25
2023-05-14T16:50:31.813Z,54.44
2023-05-14T16:52:58.245Z,54.39
2023-05-14T16:55:25.174Z,54.51
2023-05-14T16:57:51.485Z,54.76
2023-05-14T17:00:18.040Z,55.79
2023-05-14T17:02:44.504Z,55.97
2023-05-14T17:05:10.944Z,56.84
2023-05-14T17:07:38.876Z,56.93
2023-05-14T17:10:06.352Z,59.20
2023-05-14T17:12:32.716Z,61.07
2023-05-14T17:14:59.033Z,61.95
2023-05-14T17:17:25.451Z,63.29
2023-05-14T17:19:51.821Z,64.59
2023-05-14T17:22:18.336Z,66.35
2023-05-14T17:24:44.709Z,67.43
2023-05-14T17:27:11.099Z,66.83
2023-05-14T17:29:37.493Z,66.82
2023-05-14T17:32:04.314Z,66.59
2023-05-14T17:34:30.790Z,66.69
2023-05-14T17:36:57.251Z,65.88
2023-05-14T17:39:23.645Z,66.60
2023-05-14T17:41:50.026Z,67.24
2023-05-14T17:44:16.363Z,67.79
2023-05-14T17:46:44.623Z,66.63
2023-05-14T17:49:20.445Z,66.50
2023-05-14T17:51:46.974Z,67.47
2023-05-14T17:54:13.706Z,67.86
2023-05-14T17:56:40.830Z,68.66
2023-05-14T17:59:07.548Z,69.00
2023-05-14T18:01:33.896Z,69.63
2023-05-14T18:04:00.334Z,69.91
2023-05-14T18:06:26.809Z,70.48
2023-05-14T18:08:53.180Z,71.38
2023-05-14T18:11:19.559Z,71.01
2023-05-14T18:13:45.946Z,71.83
2023-05-14T18:16:12.353Z,71.90
2023-05-14T18:18:38.938Z,72.06
2023-05-14T18:21:05.472Z,71.80
2023-05-14T18:23:32.130Z,72.59
2023-05-14T18:25:59.593Z,73.24
2023-05-14T18:28:26.404Z,73.29
2023-05-14T18:30:52.779Z,73.84
2023-05-14T18:33:19.154Z,73.47
2023-05-14T18:35:45.584Z,72.99
2023-05-14T18:38:13.543Z,73.10
2023-05-14T18:40:39.883Z,72.73
2023-05-14T18:43:06.278Z,72.47
2023-05-14T18:45:33.041Z,72.45
2023-05-14T18:47:59.589Z,72.03
2023-05-14T18:50:26.077Z,73.16
2023-05-14T18:52:52.448Z,72.18
2023-05-14T18:55:18.797Z,72.11
2023-05-14T18:57:45.282Z,71.86
2023-05-14T19:00:12.425Z,72.88
2023-05-14T19:02:38.877Z,72.71
2023-05-14T19:05:06.158Z,73.42
2023-05-14T19:07:32.617Z,73.75
2023-05-14T19:09:58.945Z,74.59
2023-05-14T19:12:25.283Z,75.27
2023-05-14T19:14:51.624Z,76.20
2023-05-14T19:17:20.473Z,76.40
2023-05-14T19:19:52.174Z,76.67
2023-05-14T19:22:19.452Z,76.70
2023-05-14T19:27:16.479Z,75.65
2023-05-14T19:29:43.698Z,76.05
2023-05-14T19:32:10.483Z,75.33
2023-05-14T19:34:36.945Z,75.58
2023-05-14T19:37:03.915Z,75.82
2023-05-14T19:39:30.341Z,75.88
2023-05-14T19:41:56.756Z,75.98
2023-05-14T19:44:23.094Z,76.01
2023-05-14T19:46:49.485Z,76.33
2023-05-14T19:49:15.946Z,76.77
2023-05-14T19:51:42.301Z,76.87
2023-05-14T19:54:09.939Z,75.31
2023-05-14T19:56:36.537Z,76.66
2023-05-14T19:59:02.874Z,77.64
2023-05-14T20:01:29.503Z,78.49
2023-05-14T20:03:56.014Z,78.57
2023-05-14T20:06:22.479Z,79.18
2023-05-14T20:08:48.952Z,78.25
2023-05-14T20:11:15.683Z,78.49
2023-05-14T20:13:42.095Z,78.95
2023-05-14T20:16:08.498Z,79.28
2023-05-14T20:18:34.896Z,78.84
2023-05-14T20:21:01.515Z,79.76
2023-05-14T20:23:28.023Z,79.08
2023-05-14T20:25:54.461Z,78.82
2023-05-14T20:28:24.209Z,79.48
2023-05-14T20:30:50.654Z,79.15
2023-05-14T20:33:17.237Z,79.54
2023-05-14T20:35:44.230Z,79.42
2023-05-14T20:38:12.502Z,79.79
2023-05-14T20:40:39.060Z,79.84
2023-05-14T20:43:05.416Z,79.50
2023-05-14T20:45:31.858Z,79.49
2023-05-14T20:47:58.248Z,78.71
2023-05-14T20:50:26.950Z,79.03
2023-05-14T20:52:53.825Z,79.43
2023-05-14T20:55:21.576Z,80.21
2023-05-14T20:57:49.541Z,79.30
2023-05-14T21:00:16.261Z,79.49
2023-05-14T21:02:42.949Z,79.18
2023-05-14T21:05:09.485Z,79.52
2023-05-14T21:07:36.490Z,78.89
2023-05-14T21:10:03.630Z,79.79
2023-05-14T21:12:30.127Z,79.19
2023-05-14T21:14:56.562Z,79.64
2023-05-14T21:17:23.051Z,79.81
2023-05-14T21:19:49.380Z,79.96
2023-05-14T21:22:15.819Z,80.38
2023-05-14T21:24:42.242Z,80.60
2023-05-14T21:27:08.689Z,80.49
2023-05-14T21:29:35.079Z,80.25
2023-05-14T21:32:01.526Z,80.66
2023-05-14T21:34:29.674Z,80.73
2023-05-14T21:36:56.898Z,81.06
2023-05-14T21:39:23.276Z,81.43
2023-05-14T21:41:49.868Z,81.06
2023-05-14T21:44:16.290Z,81.03
2023-05-14T21:46:42.736Z,81.14
2023-05-14T21:49:09.104Z,81.47
2023-05-14T21:51:35.847Z,80.96
2023-05-14T21:54:02.214Z,80.77
2023-05-14T21:56:28.593Z,81.15
2023-05-14T21:58:55.936Z,81.52
2023-05-14T22:01:22.692Z,80.94
2023-05-14T22:03:49.160Z,81.24
2023-05-14T22:06:15.580Z,81.58
2023-05-14T22:08:42.050Z,81.39
2023-05-14T22:11:08.422Z,81.93
2023-05-14T22:13:37.507Z,81.92
2023-05-14T22:16:11.988Z,82.54
2023-05-14T22:18:39.529Z,82.06
2023-05-14T22:21:06.074Z,82.70
2023-05-14T22:23:32.417Z,81.59
2023-05-14T22:25:58.840Z,82.50
2023-05-14T22:28:25.265Z,82.36
2023-05-14T22:30:51.710Z,82.56
2023-05-14T22:33:19.289Z,82.06
2023-05-14T22:35:45.723Z,82.55
2023-05-14T22:38:12.635Z,82.64
2023-05-14T22:40:38.984Z,82.52
2023-05-14T22:43:05.577Z,83.34
2023-05-14T22:45:32.006Z,83.03
2023-05-14T22:47:58.500Z,83.27
2023-05-14T22:50:24.946Z,83.33
2023-05-14T22:52:51.326Z,83.56
2023-05-14T22:55:17.884Z,83.80
2023-05-14T22:57:44.228Z,83.45
2023-05-14T23:00:11.433Z,83.50
2023-05-14T23:02:37.998Z,83.49
2023-05-14T23:05:05.095Z,83.73
2023-05-14T23:07:31.473Z,83.98
2023-05-14T23:09:57.792Z,83.58
2023-05-14T23:12:24.186Z,84.17
2023-05-14T23:14:50.578Z,83.80
2023-05-14T23:17:17.557Z,84.13
2023-05-14T23:19:44.063Z,83.92
2023-05-14T23:22:10.408Z,84.59
2023-05-14T23:24:36.928Z,84.65
2023-05-14T23:27:03.396Z,84.38
2023-05-14T23:29:29.791Z,85.23
2023-05-14T23:31:56.337Z,84.58
2023-05-14T23:34:23.003Z,84.58
2023-05-14T23:36:49.815Z,84.92
2023-05-14T23:39:16.368Z,85.09
2023-05-14T23:41:42.810Z,85.67
2023-05-14T23:44:09.189Z,85.37
2023-05-14T23:46:35.716Z,85.22
2023-05-14T23:49:02.122Z,85.54
2023-05-14T23:51:28.568Z,85.00
2023-05-14T23:53:58.444Z,85.46
2023-05-14T23:56:27.201Z,85.14
2023-05-14T23:58:53.917Z,85.05
